sensor_id;sensor_type;location;lat;lon;timestamp;P1;durP1;ratioP1;P2;durP2;ratioP2
34234;SDS011;20500;49.856;20.290;2024-02-21T00:02:43;12.50;;;5.00;;
34234;SDS011;20500;49.856;20.290;2024-02-21T00:05:49;11.70;;;5.00;;
34234;SDS011;20500;49.856;20.290;2024-02-21T00:12:00;12.00;;;5.20;;
34234;SDS011;20500;49.856;20.290;2024-02-21T00:15:09;14.50;;;5.60;;
34234;SDS011;20500;49.856;20.290;2024-02-21T00:18:15;12.00;;;5.60;;
34234;SDS011;20500;49.856;20.290;2024-02-21T00:21:21;11.30;;;4.90;;
34234;SDS011;20500;49.856;20.290;2024-02-21T00:24:27;13.80;;;5.20;;
34234;SDS011;20500;49.856;20.290;2024-02-21T00:27:33;13.50;;;5.50;;
34234;SDS011;20500;49.856;20.290;2024-02-21T00:30:40;13.40;;;5.20;;
34234;SDS011;20500;49.856;20.290;2024-02-21T00:33:46;12.70;;;5.10;;
34234;SDS011;20500;49.856;20.290;2024-02-21T00:39:57;12.40;;;4.70;;
34234;SDS011;20500;49.856;20.290;2024-02-21T00:43:03;13.90;;;4.80;;
34234;SDS011;20500;49.856;20.290;2024-02-21T00:46:09;11.90;;;5.30;;
34234;SDS011;20500;49.856;20.290;2024-02-21T00:49:15;12.50;;;4.70;;
34234;SDS011;20500;49.856;20.290;2024-02-21T00:52:21;13.30;;;5.30;;
34234;SDS011;20500;49.856;20.290;2024-02-21T00:58:32;11.60;;;5.10;;
34234;SDS011;20500;49.856;20.290;2024-02-21T01:04:45;11.40;;;4.90;;
34234;SDS011;20500;49.856;20.290;2024-02-21T01:10:56;11.70;;;5.10;;
34234;SDS011;20500;49.856;20.290;2024-02-21T01:14:03;13.50;;;5.40;;
34234;SDS011;20500;49.856;20.290;2024-02-21T01:20:14;13.00;;;5.30;;
34234;SDS011;20500;49.856;20.290;2024-02-21T01:23:20;12.40;;;5.10;;
34234;SDS011;20500;49.856;20.290;2024-02-21T01:29:31;15.70;;;5.80;;
34234;SDS011;20500;49.856;20.290;2024-02-21T01:35:42;14.00;;;5.50;;
34234;SDS011;20500;49.856;20.290;2024-02-21T01:38:48;14.70;;;6.50;;
34234;SDS011;20500;49.856;20.290;2024-02-21T01:41:54;15.40;;;7.10;;
34234;SDS011;20500;49.856;20.290;2024-02-21T01:45:01;15.80;;;7.10;;
34234;SDS011;20500;49.856;20.290;2024-02-21T01:48:08;16.70;;;6.60;;
34234;SDS011;20500;49.856;20.290;2024-02-21T01:51:14;15.10;;;6.60;;
34234;SDS011;20500;49.856;20.290;2024-02-21T01:54:21;16.90;;;6.80;;
34234;SDS011;20500;49.856;20.290;2024-02-21T01:57:27;14.10;;;6.30;;
34234;SDS011;20500;49.856;20.290;2024-02-21T02:00:34;15.30;;;6.70;;
34234;SDS011;20500;49.856;20.290;2024-02-21T02:03:42;14.10;;;6.40;;
34234;SDS011;20500;49.856;20.290;2024-02-21T02:06:49;15.80;;;6.90;;
34234;SDS011;20500;49.856;20.290;2024-02-21T02:09:58;13.50;;;6.20;;
34234;SDS011;20500;49.856;20.290;2024-02-21T02:13:05;13.90;;;6.50;;
34234;SDS011;20500;49.856;20.290;2024-02-21T02:16:11;15.30;;;6.60;;
34234;SDS011;20500;49.856;20.290;2024-02-21T02:22:25;15.50;;;6.20;;
34234;SDS011;20500;49.856;20.290;2024-02-21T02:25:36;14.10;;;6.00;;
34234;SDS011;20500;49.856;20.290;2024-02-21T02:28:43;16.00;;;6.10;;
34234;SDS011;20500;49.856;20.290;2024-02-21T02:31:50;14.80;;;6.10;;
34234;SDS011;20500;49.856;20.290;2024-02-21T02:34:56;13.70;;;6.00;;
34234;SDS011;20500;49.856;20.290;2024-02-21T02:38:03;13.70;;;6.10;;
34234;SDS011;20500;49.856;20.290;2024-02-21T02:41:09;15.10;;;5.70;;
34234;SDS011;20500;49.856;20.290;2024-02-21T02:44:16;13.50;;;5.70;;
34234;SDS011;20500;49.856;20.290;2024-02-21T02:47:22;11.30;;;4.90;;
34234;SDS011;20500;49.856;20.290;2024-02-21T02:50:28;12.70;;;5.70;;
34234;SDS011;20500;49.856;20.290;2024-02-21T02:56:39;15.90;;;6.50;;
34234;SDS011;20500;49.856;20.290;2024-02-21T02:59:48;15.00;;;6.30;;
34234;SDS011;20500;49.856;20.290;2024-02-21T03:02:55;14.90;;;6.50;;
34234;SDS011;20500;49.856;20.290;2024-02-21T03:06:01;15.90;;;6.70;;
34234;SDS011;20500;49.856;20.290;2024-02-21T03:09:07;14.30;;;6.30;;
34234;SDS011;20500;49.856;20.290;2024-02-21T03:15:27;15.60;;;7.10;;
34234;SDS011;20500;49.856;20.290;2024-02-21T03:18:33;13.20;;;5.70;;
34234;SDS011;20500;49.856;20.290;2024-02-21T03:21:39;15.70;;;6.10;;
34234;SDS011;20500;49.856;20.290;2024-02-21T03:24:45;16.00;;;6.60;;
34234;SDS011;20500;49.856;20.290;2024-02-21T03:30:56;14.60;;;6.20;;
34234;SDS011;20500;49.856;20.290;2024-02-21T03:34:02;13.40;;;4.90;;
34234;SDS011;20500;49.856;20.290;2024-02-21T03:40:13;15.90;;;5.90;;
34234;SDS011;20500;49.856;20.290;2024-02-21T03:43:20;13.70;;;5.30;;
34234;SDS011;20500;49.856;20.290;2024-02-21T03:46:26;14.30;;;5.30;;
34234;SDS011;20500;49.856;20.290;2024-02-21T03:52:37;11.70;;;5.50;;
34234;SDS011;20500;49.856;20.290;2024-02-21T03:55:43;12.60;;;5.70;;
34234;SDS011;20500;49.856;20.290;2024-02-21T03:58:50;14.00;;;5.70;;
34234;SDS011;20500;49.856;20.290;2024-02-21T04:01:56;14.40;;;6.10;;
34234;SDS011;20500;49.856;20.290;2024-02-21T04:05:04;14.30;;;5.90;;
34234;SDS011;20500;49.856;20.290;2024-02-21T04:08:14;14.70;;;6.10;;
34234;SDS011;20500;49.856;20.290;2024-02-21T04:11:20;16.00;;;6.30;;
34234;SDS011;20500;49.856;20.290;2024-02-21T04:14:27;12.00;;;5.40;;
34234;SDS011;20500;49.856;20.290;2024-02-21T04:17:34;13.90;;;5.50;;
34234;SDS011;20500;49.856;20.290;2024-02-21T04:20:40;12.60;;;5.00;;
34234;SDS011;20500;49.856;20.290;2024-02-21T04:23:46;12.80;;;5.90;;
34234;SDS011;20500;49.856;20.290;2024-02-21T04:29:57;12.50;;;5.20;;
34234;SDS011;20500;49.856;20.290;2024-02-21T04:33:04;13.60;;;5.70;;
34234;SDS011;20500;49.856;20.290;2024-02-21T04:36:10;12.80;;;5.00;;
34234;SDS011;20500;49.856;20.290;2024-02-21T04:39:16;11.60;;;4.40;;
34234;SDS011;20500;49.856;20.290;2024-02-21T04:42:22;11.00;;;4.50;;
34234;SDS011;20500;49.856;20.290;2024-02-21T04:45:28;10.40;;;3.90;;
34234;SDS011;20500;49.856;20.290;2024-02-21T04:48:35;12.30;;;4.20;;
34234;SDS011;20500;49.856;20.290;2024-02-21T04:51:41;12.10;;;4.70;;
34234;SDS011;20500;49.856;20.290;2024-02-21T04:54:48;11.90;;;5.00;;
34234;SDS011;20500;49.856;20.290;2024-02-21T05:00:59;12.60;;;4.80;;
34234;SDS011;20500;49.856;20.290;2024-02-21T05:04:05;15.40;;;4.80;;
34234;SDS011;20500;49.856;20.290;2024-02-21T05:07:11;12.20;;;4.70;;
34234;SDS011;20500;49.856;20.290;2024-02-21T05:10:18;11.20;;;4.40;;
34234;SDS011;20500;49.856;20.290;2024-02-21T05:13:24;13.10;;;4.90;;
34234;SDS011;20500;49.856;20.290;2024-02-21T05:16:30;11.60;;;4.50;;
34234;SDS011;20500;49.856;20.290;2024-02-21T05:19:37;10.40;;;3.90;;
34234;SDS011;20500;49.856;20.290;2024-02-21T05:22:43;14.40;;;4.80;;
34234;SDS011;20500;49.856;20.290;2024-02-21T05:25:49;12.70;;;4.00;;
34234;SDS011;20500;49.856;20.290;2024-02-21T05:28:56;8.60;;;3.20;;
34234;SDS011;20500;49.856;20.290;2024-02-21T05:32:03;8.50;;;2.90;;
34234;SDS011;20500;49.856;20.290;2024-02-21T05:35:10;10.20;;;3.30;;
34234;SDS011;20500;49.856;20.290;2024-02-21T05:41:21;10.60;;;3.30;;
34234;SDS011;20500;49.856;20.290;2024-02-21T05:44:27;11.40;;;3.90;;
34234;SDS011;20500;49.856;20.290;2024-02-21T05:47:33;12.10;;;5.10;;
34234;SDS011;20500;49.856;20.290;2024-02-21T05:50:40;15.80;;;5.30;;
34234;SDS011;20500;49.856;20.290;2024-02-21T05:56:50;11.70;;;5.00;;
34234;SDS011;20500;49.856;20.290;2024-02-21T05:59:56;11.70;;;4.50;;
34234;SDS011;20500;49.856;20.290;2024-02-21T06:06:08;13.40;;;5.20;;
34234;SDS011;20500;49.856;20.290;2024-02-21T06:09:14;12.80;;;4.40;;
34234;SDS011;20500;49.856;20.290;2024-02-21T06:12:20;12.30;;;4.30;;
34234;SDS011;20500;49.856;20.290;2024-02-21T06:15:26;14.80;;;4.60;;
34234;SDS011;20500;49.856;20.290;2024-02-21T06:18:33;12.60;;;4.40;;
34234;SDS011;20500;49.856;20.290;2024-02-21T06:21:41;12.70;;;4.60;;
34234;SDS011;20500;49.856;20.290;2024-02-21T06:24:47;15.60;;;5.60;;
34234;SDS011;20500;49.856;20.290;2024-02-21T06:30:57;10.30;;;4.00;;
34234;SDS011;20500;49.856;20.290;2024-02-21T06:34:04;13.00;;;4.90;;
34234;SDS011;20500;49.856;20.290;2024-02-21T06:40:14;12.00;;;4.20;;
34234;SDS011;20500;49.856;20.290;2024-02-21T06:43:21;12.70;;;5.80;;
34234;SDS011;20500;49.856;20.290;2024-02-21T06:49:33;14.60;;;6.30;;
34234;SDS011;20500;49.856;20.290;2024-02-21T06:52:40;14.30;;;6.10;;
34234;SDS011;20500;49.856;20.290;2024-02-21T06:58:51;13.40;;;5.90;;
34234;SDS011;20500;49.856;20.290;2024-02-21T07:01:57;15.40;;;7.20;;
34234;SDS011;20500;49.856;20.290;2024-02-21T07:05:04;13.10;;;6.00;;
34234;SDS011;20500;49.856;20.290;2024-02-21T07:08:11;14.50;;;6.60;;
34234;SDS011;20500;49.856;20.290;2024-02-21T07:11:18;18.30;;;7.00;;
34234;SDS011;20500;49.856;20.290;2024-02-21T07:14:24;14.50;;;7.40;;
34234;SDS011;20500;49.856;20.290;2024-02-21T07:17:32;18.90;;;10.90;;
34234;SDS011;20500;49.856;20.290;2024-02-21T07:26:48;14.90;;;9.10;;
34234;SDS011;20500;49.856;20.290;2024-02-21T07:29:55;16.40;;;8.60;;
34234;SDS011;20500;49.856;20.290;2024-02-21T07:36:07;14.10;;;6.80;;
34234;SDS011;20500;49.856;20.290;2024-02-21T07:39:14;13.10;;;5.90;;
34234;SDS011;20500;49.856;20.290;2024-02-21T07:42:21;14.70;;;6.20;;
34234;SDS011;20500;49.856;20.290;2024-02-21T07:45:27;13.70;;;6.50;;
34234;SDS011;20500;49.856;20.290;2024-02-21T07:48:33;15.40;;;7.20;;
34234;SDS011;20500;49.856;20.290;2024-02-21T07:57:49;11.00;;;4.80;;
34234;SDS011;20500;49.856;20.290;2024-02-21T08:00:55;10.30;;;3.50;;
34234;SDS011;20500;49.856;20.290;2024-02-21T08:07:07;10.80;;;3.10;;
34234;SDS011;20500;49.856;20.290;2024-02-21T08:10:14;9.00;;;3.60;;
34234;SDS011;20500;49.856;20.290;2024-02-21T08:13:21;9.00;;;2.70;;
34234;SDS011;20500;49.856;20.290;2024-02-21T08:16:27;8.40;;;2.90;;
34234;SDS011;20500;49.856;20.290;2024-02-21T08:19:34;9.00;;;2.60;;
34234;SDS011;20500;49.856;20.290;2024-02-21T08:22:40;10.80;;;3.50;;
34234;SDS011;20500;49.856;20.290;2024-02-21T08:25:46;11.60;;;3.90;;
34234;SDS011;20500;49.856;20.290;2024-02-21T08:31:58;11.30;;;3.80;;
34234;SDS011;20500;49.856;20.290;2024-02-21T08:38:09;11.30;;;4.00;;
34234;SDS011;20500;49.856;20.290;2024-02-21T08:44:21;12.30;;;3.50;;
34234;SDS011;20500;49.856;20.290;2024-02-21T08:47:29;12.90;;;4.60;;
34234;SDS011;20500;49.856;20.290;2024-02-21T08:50:35;12.10;;;3.90;;
34234;SDS011;20500;49.856;20.290;2024-02-21T08:53:42;11.00;;;3.30;;
34234;SDS011;20500;49.856;20.290;2024-02-21T08:59:53;9.80;;;3.20;;
34234;SDS011;20500;49.856;20.290;2024-02-21T09:06:04;10.80;;;3.40;;
34234;SDS011;20500;49.856;20.290;2024-02-21T09:09:11;12.60;;;4.60;;
34234;SDS011;20500;49.856;20.290;2024-02-21T09:15:22;10.30;;;3.30;;
34234;SDS011;20500;49.856;20.290;2024-02-21T09:18:28;10.80;;;3.20;;
34234;SDS011;20500;49.856;20.290;2024-02-21T09:24:39;11.40;;;3.70;;
34234;SDS011;20500;49.856;20.290;2024-02-21T09:27:45;9.90;;;2.90;;
34234;SDS011;20500;49.856;20.290;2024-02-21T09:30:52;10.30;;;2.90;;
34234;SDS011;20500;49.856;20.290;2024-02-21T09:37:03;10.90;;;3.60;;
34234;SDS011;20500;49.856;20.290;2024-02-21T09:40:10;10.50;;;2.90;;
34234;SDS011;20500;49.856;20.290;2024-02-21T09:43:20;7.90;;;2.40;;
34234;SDS011;20500;49.856;20.290;2024-02-21T09:49:38;10.50;;;3.60;;
34234;SDS011;20500;49.856;20.290;2024-02-21T09:52:46;11.40;;;3.00;;
34234;SDS011;20500;49.856;20.290;2024-02-21T09:55:55;9.30;;;2.70;;
34234;SDS011;20500;49.856;20.290;2024-02-21T09:59:03;9.70;;;3.80;;
34234;SDS011;20500;49.856;20.290;2024-02-21T10:02:10;11.30;;;3.40;;
34234;SDS011;20500;49.856;20.290;2024-02-21T10:05:16;7.90;;;2.10;;
34234;SDS011;20500;49.856;20.290;2024-02-21T10:08:23;8.60;;;2.80;;
34234;SDS011;20500;49.856;20.290;2024-02-21T10:14:34;10.10;;;2.70;;
34234;SDS011;20500;49.856;20.290;2024-02-21T10:17:40;8.00;;;2.30;;
34234;SDS011;20500;49.856;20.290;2024-02-21T10:20:47;8.40;;;2.40;;
34234;SDS011;20500;49.856;20.290;2024-02-21T10:24:04;10.20;;;2.20;;
34234;SDS011;20500;49.856;20.290;2024-02-21T10:27:10;7.30;;;2.10;;
34234;SDS011;20500;49.856;20.290;2024-02-21T10:30:17;12.60;;;3.60;;
34234;SDS011;20500;49.856;20.290;2024-02-21T10:33:23;7.90;;;2.20;;
34234;SDS011;20500;49.856;20.290;2024-02-21T10:36:31;8.40;;;2.60;;
34234;SDS011;20500;49.856;20.290;2024-02-21T10:39:37;8.00;;;2.40;;
34234;SDS011;20500;49.856;20.290;2024-02-21T10:42:45;10.60;;;3.10;;
34234;SDS011;20500;49.856;20.290;2024-02-21T10:45:52;12.10;;;4.80;;
34234;SDS011;20500;49.856;20.290;2024-02-21T10:49:04;8.10;;;2.60;;
34234;SDS011;20500;49.856;20.290;2024-02-21T10:52:28;7.30;;;2.20;;
34234;SDS011;20500;49.856;20.290;2024-02-21T10:55:45;9.70;;;3.10;;
34234;SDS011;20500;49.856;20.290;2024-02-21T10:59:00;8.90;;;2.50;;
34234;SDS011;20500;49.856;20.290;2024-02-21T11:02:07;6.50;;;2.10;;
34234;SDS011;20500;49.856;20.290;2024-02-21T11:05:14;9.20;;;2.50;;
34234;SDS011;20500;49.856;20.290;2024-02-21T11:08:22;8.50;;;2.30;;
34234;SDS011;20500;49.856;20.290;2024-02-21T11:11:31;9.80;;;2.30;;
34234;SDS011;20500;49.856;20.290;2024-02-21T11:14:43;10.00;;;2.30;;
34234;SDS011;20500;49.856;20.290;2024-02-21T11:17:55;7.20;;;2.10;;
34234;SDS011;20500;49.856;20.290;2024-02-21T11:21:04;9.30;;;2.90;;
34234;SDS011;20500;49.856;20.290;2024-02-21T11:24:11;7.10;;;2.00;;
34234;SDS011;20500;49.856;20.290;2024-02-21T11:27:18;6.90;;;1.80;;
34234;SDS011;20500;49.856;20.290;2024-02-21T11:30:29;7.10;;;2.00;;
34234;SDS011;20500;49.856;20.290;2024-02-21T11:33:36;8.30;;;2.30;;
34234;SDS011;20500;49.856;20.290;2024-02-21T11:36:48;8.80;;;2.70;;
34234;SDS011;20500;49.856;20.290;2024-02-21T11:39:56;7.20;;;2.70;;
34234;SDS011;20500;49.856;20.290;2024-02-21T11:43:02;7.40;;;2.10;;
34234;SDS011;20500;49.856;20.290;2024-02-21T11:46:09;10.10;;;3.30;;
34234;SDS011;20500;49.856;20.290;2024-02-21T11:49:15;9.30;;;2.60;;
34234;SDS011;20500;49.856;20.290;2024-02-21T11:52:23;9.00;;;2.40;;
34234;SDS011;20500;49.856;20.290;2024-02-21T11:55:31;8.10;;;2.40;;
34234;SDS011;20500;49.856;20.290;2024-02-21T11:58:37;9.10;;;2.70;;
34234;SDS011;20500;49.856;20.290;2024-02-21T12:01:46;9.60;;;2.90;;
34234;SDS011;20500;49.856;20.290;2024-02-21T12:04:52;8.80;;;3.20;;
34234;SDS011;20500;49.856;20.290;2024-02-21T12:07:59;7.60;;;2.50;;
34234;SDS011;20500;49.856;20.290;2024-02-21T12:11:05;6.90;;;2.20;;
34234;SDS011;20500;49.856;20.290;2024-02-21T12:14:24;10.00;;;3.30;;
34234;SDS011;20500;49.856;20.290;2024-02-21T12:17:32;7.70;;;2.60;;
34234;SDS011;20500;49.856;20.290;2024-02-21T12:20:39;10.50;;;2.70;;
34234;SDS011;20500;49.856;20.290;2024-02-21T12:23:45;9.40;;;3.20;;
34234;SDS011;20500;49.856;20.290;2024-02-21T12:29:56;8.70;;;2.70;;
34234;SDS011;20500;49.856;20.290;2024-02-21T12:33:03;8.10;;;2.90;;
34234;SDS011;20500;49.856;20.290;2024-02-21T12:36:09;7.40;;;2.40;;
34234;SDS011;20500;49.856;20.290;2024-02-21T12:39:15;10.30;;;4.10;;
34234;SDS011;20500;49.856;20.290;2024-02-21T12:42:21;8.00;;;2.70;;
34234;SDS011;20500;49.856;20.290;2024-02-21T12:45:28;6.80;;;2.60;;
34234;SDS011;20500;49.856;20.290;2024-02-21T12:51:39;9.00;;;3.10;;
34234;SDS011;20500;49.856;20.290;2024-02-21T12:54:45;9.40;;;3.40;;
34234;SDS011;20500;49.856;20.290;2024-02-21T12:57:54;9.80;;;4.00;;
34234;SDS011;20500;49.856;20.290;2024-02-21T13:01:00;11.50;;;5.90;;
34234;SDS011;20500;49.856;20.290;2024-02-21T13:04:07;10.80;;;4.50;;
34234;SDS011;20500;49.856;20.290;2024-02-21T13:07:15;8.90;;;3.40;;
34234;SDS011;20500;49.856;20.290;2024-02-21T13:10:22;9.00;;;3.50;;
34234;SDS011;20500;49.856;20.290;2024-02-21T13:13:28;11.00;;;4.00;;
34234;SDS011;20500;49.856;20.290;2024-02-21T13:16:34;11.40;;;4.10;;
34234;SDS011;20500;49.856;20.290;2024-02-21T13:19:43;12.20;;;5.40;;
34234;SDS011;20500;49.856;20.290;2024-02-21T13:22:49;8.80;;;3.60;;
34234;SDS011;20500;49.856;20.290;2024-02-21T13:29:00;12.80;;;6.10;;
34234;SDS011;20500;49.856;20.290;2024-02-21T13:32:07;10.40;;;3.70;;
34234;SDS011;20500;49.856;20.290;2024-02-21T13:35:13;12.10;;;5.10;;
34234;SDS011;20500;49.856;20.290;2024-02-21T13:38:20;11.20;;;4.10;;
34234;SDS011;20500;49.856;20.290;2024-02-21T13:41:27;9.90;;;3.90;;
34234;SDS011;20500;49.856;20.290;2024-02-21T13:44:33;13.50;;;4.70;;
34234;SDS011;20500;49.856;20.290;2024-02-21T13:47:40;10.20;;;3.90;;
34234;SDS011;20500;49.856;20.290;2024-02-21T13:50:46;10.60;;;3.30;;
34234;SDS011;20500;49.856;20.290;2024-02-21T13:53:52;11.90;;;4.70;;
34234;SDS011;20500;49.856;20.290;2024-02-21T13:56:58;14.20;;;6.00;;
34234;SDS011;20500;49.856;20.290;2024-02-21T14:00:06;15.40;;;7.20;;
34234;SDS011;20500;49.856;20.290;2024-02-21T14:03:14;14.00;;;6.00;;
34234;SDS011;20500;49.856;20.290;2024-02-21T14:06:21;9.30;;;4.00;;
34234;SDS011;20500;49.856;20.290;2024-02-21T14:09:27;13.40;;;5.20;;
34234;SDS011;20500;49.856;20.290;2024-02-21T14:12:33;11.00;;;4.40;;
34234;SDS011;20500;49.856;20.290;2024-02-21T14:15:39;11.40;;;4.20;;
34234;SDS011;20500;49.856;20.290;2024-02-21T14:18:47;14.00;;;7.30;;
34234;SDS011;20500;49.856;20.290;2024-02-21T14:24:58;12.80;;;4.00;;
34234;SDS011;20500;49.856;20.290;2024-02-21T14:28:05;13.70;;;5.90;;
34234;SDS011;20500;49.856;20.290;2024-02-21T14:31:12;12.60;;;4.70;;
34234;SDS011;20500;49.856;20.290;2024-02-21T14:34:18;13.60;;;6.60;;
34234;SDS011;20500;49.856;20.290;2024-02-21T14:37:25;12.90;;;6.40;;
34234;SDS011;20500;49.856;20.290;2024-02-21T14:46:41;11.00;;;4.20;;
34234;SDS011;20500;49.856;20.290;2024-02-21T14:52:52;11.70;;;3.70;;
34234;SDS011;20500;49.856;20.290;2024-02-21T14:55:58;14.70;;;8.60;;
34234;SDS011;20500;49.856;20.290;2024-02-21T14:59:05;12.50;;;4.80;;
34234;SDS011;20500;49.856;20.290;2024-02-21T15:02:23;11.30;;;4.80;;
34234;SDS011;20500;49.856;20.290;2024-02-21T15:05:31;13.90;;;5.00;;
34234;SDS011;20500;49.856;20.290;2024-02-21T15:08:38;14.10;;;6.20;;
34234;SDS011;20500;49.856;20.290;2024-02-21T15:11:45;12.70;;;6.00;;
34234;SDS011;20500;49.856;20.290;2024-02-21T15:14:51;11.40;;;4.90;;
34234;SDS011;20500;49.856;20.290;2024-02-21T15:21:02;14.70;;;6.70;;
34234;SDS011;20500;49.856;20.290;2024-02-21T15:24:10;12.10;;;4.80;;
34234;SDS011;20500;49.856;20.290;2024-02-21T15:27:16;15.60;;;6.40;;
34234;SDS011;20500;49.856;20.290;2024-02-21T15:33:27;15.30;;;6.00;;
34234;SDS011;20500;49.856;20.290;2024-02-21T15:36:35;12.80;;;5.40;;
34234;SDS011;20500;49.856;20.290;2024-02-21T15:39:41;12.90;;;5.30;;
34234;SDS011;20500;49.856;20.290;2024-02-21T15:42:47;12.40;;;5.20;;
34234;SDS011;20500;49.856;20.290;2024-02-21T15:45:55;14.40;;;6.50;;
34234;SDS011;20500;49.856;20.290;2024-02-21T15:49:02;13.90;;;5.90;;
34234;SDS011;20500;49.856;20.290;2024-02-21T15:52:10;15.40;;;8.10;;
34234;SDS011;20500;49.856;20.290;2024-02-21T15:55:16;13.90;;;5.50;;
34234;SDS011;20500;49.856;20.290;2024-02-21T15:58:23;13.70;;;5.30;;
34234;SDS011;20500;49.856;20.290;2024-02-21T16:01:30;12.50;;;5.40;;
34234;SDS011;20500;49.856;20.290;2024-02-21T16:04:40;12.50;;;4.50;;
34234;SDS011;20500;49.856;20.290;2024-02-21T16:07:47;15.40;;;7.60;;
34234;SDS011;20500;49.856;20.290;2024-02-21T16:10:56;12.10;;;4.90;;
34234;SDS011;20500;49.856;20.290;2024-02-21T16:14:06;22.30;;;11.30;;
34234;SDS011;20500;49.856;20.290;2024-02-21T16:17:14;19.90;;;10.90;;
34234;SDS011;20500;49.856;20.290;2024-02-21T16:20:20;18.30;;;9.00;;
34234;SDS011;20500;49.856;20.290;2024-02-21T16:26:31;15.00;;;6.50;;
34234;SDS011;20500;49.856;20.290;2024-02-21T16:29:39;16.00;;;8.10;;
34234;SDS011;20500;49.856;20.290;2024-02-21T16:32:45;22.40;;;12.70;;
34234;SDS011;20500;49.856;20.290;2024-02-21T16:35:51;21.80;;;12.30;;
34234;SDS011;20500;49.856;20.290;2024-02-21T16:38:59;17.40;;;9.40;;
34234;SDS011;20500;49.856;20.290;2024-02-21T16:42:06;17.90;;;9.70;;
34234;SDS011;20500;49.856;20.290;2024-02-21T16:45:13;15.50;;;7.20;;
34234;SDS011;20500;49.856;20.290;2024-02-21T16:48:20;17.70;;;9.40;;
34234;SDS011;20500;49.856;20.290;2024-02-21T16:51:26;20.80;;;10.30;;
34234;SDS011;20500;49.856;20.290;2024-02-21T16:54:32;17.80;;;8.40;;
34234;SDS011;20500;49.856;20.290;2024-02-21T16:57:38;17.30;;;9.00;;
34234;SDS011;20500;49.856;20.290;2024-02-21T17:03:49;17.80;;;7.90;;
34234;SDS011;20500;49.856;20.290;2024-02-21T17:10:00;15.50;;;6.80;;
34234;SDS011;20500;49.856;20.290;2024-02-21T17:13:08;18.60;;;9.30;;
34234;SDS011;20500;49.856;20.290;2024-02-21T17:19:19;17.90;;;8.50;;
34234;SDS011;20500;49.856;20.290;2024-02-21T17:22:25;15.90;;;8.00;;
34234;SDS011;20500;49.856;20.290;2024-02-21T17:25:35;17.20;;;8.20;;
34234;SDS011;20500;49.856;20.290;2024-02-21T17:28:41;16.10;;;7.90;;
34234;SDS011;20500;49.856;20.290;2024-02-21T17:31:48;17.20;;;8.10;;
34234;SDS011;20500;49.856;20.290;2024-02-21T17:34:54;18.00;;;9.40;;
34234;SDS011;20500;49.856;20.290;2024-02-21T17:38:00;14.10;;;6.70;;
34234;SDS011;20500;49.856;20.290;2024-02-21T17:41:08;15.30;;;6.50;;
34234;SDS011;20500;49.856;20.290;2024-02-21T17:44:15;14.60;;;7.00;;
34234;SDS011;20500;49.856;20.290;2024-02-21T17:47:21;14.30;;;6.50;;
34234;SDS011;20500;49.856;20.290;2024-02-21T17:53:32;16.30;;;6.80;;
34234;SDS011;20500;49.856;20.290;2024-02-21T17:56:38;17.70;;;8.20;;
34234;SDS011;20500;49.856;20.290;2024-02-21T18:02:49;15.10;;;7.40;;
34234;SDS011;20500;49.856;20.290;2024-02-21T18:05:56;17.10;;;8.00;;
34234;SDS011;20500;49.856;20.290;2024-02-21T18:09:06;15.20;;;7.20;;
34234;SDS011;20500;49.856;20.290;2024-02-21T18:12:13;16.70;;;7.80;;
34234;SDS011;20500;49.856;20.290;2024-02-21T18:15:19;16.60;;;8.10;;
34234;SDS011;20500;49.856;20.290;2024-02-21T18:18:25;16.30;;;7.80;;
34234;SDS011;20500;49.856;20.290;2024-02-21T18:21:31;15.60;;;8.10;;
34234;SDS011;20500;49.856;20.290;2024-02-21T18:27:42;18.00;;;8.70;;
34234;SDS011;20500;49.856;20.290;2024-02-21T18:33:54;15.40;;;7.90;;
34234;SDS011;20500;49.856;20.290;2024-02-21T18:37:04;16.90;;;7.50;;
34234;SDS011;20500;49.856;20.290;2024-02-21T18:43:16;15.60;;;7.60;;
34234;SDS011;20500;49.856;20.290;2024-02-21T18:46:22;16.00;;;7.80;;
34234;SDS011;20500;49.856;20.290;2024-02-21T18:49:29;17.30;;;8.60;;
34234;SDS011;20500;49.856;20.290;2024-02-21T18:52:35;14.60;;;6.60;;
34234;SDS011;20500;49.856;20.290;2024-02-21T18:55:41;14.20;;;6.30;;
34234;SDS011;20500;49.856;20.290;2024-02-21T19:01:52;15.20;;;7.30;;
34234;SDS011;20500;49.856;20.290;2024-02-21T19:04:59;14.60;;;7.10;;
34234;SDS011;20500;49.856;20.290;2024-02-21T19:08:07;14.00;;;6.20;;
34234;SDS011;20500;49.856;20.290;2024-02-21T19:11:13;14.90;;;6.50;;
34234;SDS011;20500;49.856;20.290;2024-02-21T19:17:24;14.30;;;6.50;;
34234;SDS011;20500;49.856;20.290;2024-02-21T19:20:31;14.60;;;6.60;;
34234;SDS011;20500;49.856;20.290;2024-02-21T19:23:38;15.10;;;8.00;;
34234;SDS011;20500;49.856;20.290;2024-02-21T19:26:45;16.90;;;11.00;;
34234;SDS011;20500;49.856;20.290;2024-02-21T19:29:51;16.00;;;8.30;;
34234;SDS011;20500;49.856;20.290;2024-02-21T19:32:57;19.40;;;12.00;;
34234;SDS011;20500;49.856;20.290;2024-02-21T19:36:04;17.50;;;9.60;;
34234;SDS011;20500;49.856;20.290;2024-02-21T19:39:12;17.30;;;9.10;;
34234;SDS011;20500;49.856;20.290;2024-02-21T19:42:18;17.10;;;9.10;;
34234;SDS011;20500;49.856;20.290;2024-02-21T19:48:29;22.60;;;12.40;;
34234;SDS011;20500;49.856;20.290;2024-02-21T19:51:36;29.60;;;15.10;;
34234;SDS011;20500;49.856;20.290;2024-02-21T19:54:42;22.10;;;11.90;;
34234;SDS011;20500;49.856;20.290;2024-02-21T19:57:48;23.50;;;11.60;;
34234;SDS011;20500;49.856;20.290;2024-02-21T20:03:59;17.60;;;7.20;;
34234;SDS011;20500;49.856;20.290;2024-02-21T20:07:06;15.10;;;5.70;;
34234;SDS011;20500;49.856;20.290;2024-02-21T20:10:13;13.90;;;6.30;;
34234;SDS011;20500;49.856;20.290;2024-02-21T20:13:21;14.20;;;5.90;;
34234;SDS011;20500;49.856;20.290;2024-02-21T20:16:27;13.90;;;5.90;;
34234;SDS011;20500;49.856;20.290;2024-02-21T20:19:34;13.20;;;5.30;;
34234;SDS011;20500;49.856;20.290;2024-02-21T20:22:41;16.80;;;9.20;;
34234;SDS011;20500;49.856;20.290;2024-02-21T20:25:47;16.70;;;8.40;;
34234;SDS011;20500;49.856;20.290;2024-02-21T20:28:54;14.60;;;8.00;;
34234;SDS011;20500;49.856;20.290;2024-02-21T20:32:00;14.40;;;6.80;;
34234;SDS011;20500;49.856;20.290;2024-02-21T20:35:08;16.50;;;7.10;;
34234;SDS011;20500;49.856;20.290;2024-02-21T20:38:15;12.70;;;5.70;;
34234;SDS011;20500;49.856;20.290;2024-02-21T20:41:21;16.90;;;6.80;;
34234;SDS011;20500;49.856;20.290;2024-02-21T20:44:27;16.50;;;8.20;;
34234;SDS011;20500;49.856;20.290;2024-02-21T20:50:39;19.50;;;8.30;;
34234;SDS011;20500;49.856;20.290;2024-02-21T20:53:45;18.00;;;10.00;;
34234;SDS011;20500;49.856;20.290;2024-02-21T20:56:51;22.50;;;12.00;;
34234;SDS011;20500;49.856;20.290;2024-02-21T21:00:01;21.70;;;11.60;;
34234;SDS011;20500;49.856;20.290;2024-02-21T21:03:08;20.10;;;9.60;;
34234;SDS011;20500;49.856;20.290;2024-02-21T21:06:14;22.00;;;10.70;;
34234;SDS011;20500;49.856;20.290;2024-02-21T21:09:22;26.20;;;12.60;;
34234;SDS011;20500;49.856;20.290;2024-02-21T21:12:29;21.80;;;10.40;;
34234;SDS011;20500;49.856;20.290;2024-02-21T21:15:35;18.60;;;8.90;;
34234;SDS011;20500;49.856;20.290;2024-02-21T21:18:42;18.90;;;10.40;;
34234;SDS011;20500;49.856;20.290;2024-02-21T21:24:53;17.20;;;10.40;;
34234;SDS011;20500;49.856;20.290;2024-02-21T21:27:59;26.10;;;12.50;;
34234;SDS011;20500;49.856;20.290;2024-02-21T21:31:07;22.70;;;11.60;;